Wiscasset, Maine
Current Conditions -  °F | °C
As of 11:53 PM on Sunday 19 Oct 2014 (Local Time) from KIWI Reporting Station
Overcast Overcast  
Wind Chill: 40°   Ceiling: 7000
Heat Index: 43°   Visibility: 10mi
Dew Point: 27°   Wind: 5mph
Humidity: 53%   Direction: 280°W
Pressure: 29.87"   Gusts: NA
Location:  44°N, 69.66°W
Report Text: KIWI 200353Z AUTO 28004KT 10SM OVC070 06/M03 A2987 RMK AO2 SLP115 T00611028
Loading
Personal Weather Stations






























Interactive Weather Map
Tropical Storm Tracking
New forecast layout! Learn more

10-Day Weather Forecast

Advertisements
Track Severe Weather on mobile